createdAt,value
2023-08-25T00:02:23.605Z,22.25
2023-08-25T00:04:50.543Z,23.33
2023-08-25T00:07:16.974Z,22.67
2023-08-25T00:09:45.170Z,22.67
2023-08-25T00:12:12.326Z,23.00
2023-08-25T00:14:38.742Z,23.00
2023-08-25T00:17:05.229Z,26.00
2023-08-25T00:19:31.666Z,23.00
2023-08-25T00:21:58.236Z,23.67
2023-08-25T00:24:24.638Z,23.00
2023-08-25T00:26:51.195Z,23.00
2023-08-25T00:29:17.672Z,24.00
2023-08-25T00:31:45.503Z,25.00
2023-08-25T00:34:12.326Z,26.00
2023-08-25T00:36:38.888Z,19.33
2023-08-25T00:39:05.458Z,22.00
2023-08-25T00:41:31.889Z,23.50
2023-08-25T00:43:58.979Z,20.00
2023-08-25T00:46:25.655Z,24.00
2023-08-25T00:48:52.299Z,23.00
2023-08-25T00:51:19.090Z,23.00
2023-08-25T00:53:46.809Z,23.33
2023-08-25T00:56:15.062Z,25.00
2023-08-25T00:58:41.742Z,23.33
2023-08-25T01:01:09.041Z,23.33
2023-08-25T01:03:37.362Z,24.00
2023-08-25T01:06:04.093Z,24.00
2023-08-25T01:08:31.016Z,24.00
2023-08-25T01:11:15.967Z,23.67
2023-08-25T01:13:48.688Z,25.00
2023-08-25T01:16:17.578Z,22.67
2023-08-25T01:18:45.416Z,22.67
2023-08-25T01:21:12.814Z,24.67
2023-08-25T01:23:40.016Z,24.00
2023-08-25T01:26:06.504Z,24.33
2023-08-25T01:28:32.964Z,23.00
2023-08-25T01:31:00.719Z,23.75
2023-08-25T01:33:33.661Z,24.00
2023-08-25T01:36:14.969Z,23.00
2023-08-25T01:38:44.521Z,22.25
2023-08-25T01:41:29.736Z,24.67
2023-08-25T01:43:57.062Z,23.00
2023-08-25T01:46:24.394Z,22.33
2023-08-25T01:48:52.621Z,23.00
2023-08-25T01:51:19.152Z,23.25
2023-08-25T01:53:45.915Z,23.33
2023-08-25T01:56:12.425Z,19.25
2023-08-25T01:58:38.936Z,22.67
2023-08-25T02:01:05.343Z,23.00
2023-08-25T02:03:31.784Z,23.00
2023-08-25T02:05:58.416Z,19.25
2023-08-25T02:08:25.020Z,22.67
2023-08-25T02:10:51.507Z,20.25
2023-08-25T02:13:17.969Z,24.00
2023-08-25T02:15:45.779Z,23.00
2023-08-25T02:18:12.642Z,21.00
2023-08-25T02:20:42.350Z,21.25
2023-08-25T02:23:08.943Z,22.75
2023-08-25T02:25:35.402Z,21.00
2023-08-25T02:28:01.855Z,21.00
2023-08-25T02:30:28.302Z,22.25
2023-08-25T02:32:56.293Z,23.00
2023-08-25T02:35:22.928Z,19.33
2023-08-25T02:38:01.680Z,22.33
2023-08-25T02:40:28.983Z,23.00
2023-08-25T02:42:56.436Z,24.00
2023-08-25T02:45:23.485Z,23.25
2023-08-25T02:47:49.983Z,21.75
2023-08-25T02:50:16.524Z,21.67
2023-08-25T02:52:42.903Z,21.75
2023-08-25T02:55:09.449Z,23.00
2023-08-25T02:57:35.924Z,21.50
2023-08-25T03:00:03.587Z,21.25
2023-08-25T03:02:30.116Z,21.75
2023-08-25T03:04:56.601Z,22.25
2023-08-25T03:07:23.246Z,23.00
2023-08-25T03:09:50.045Z,23.75
2023-08-25T03:12:16.498Z,21.75
2023-08-25T03:14:43.051Z,21.00
2023-08-25T03:17:09.986Z,20.75
2023-08-25T03:19:38.634Z,20.25
2023-08-25T03:22:05.477Z,18.33
2023-08-25T03:24:31.900Z,22.67
2023-08-25T03:26:58.536Z,20.75
2023-08-25T03:29:25.073Z,21.75
2023-08-25T03:31:51.468Z,22.25
2023-08-25T03:34:17.963Z,21.25
2023-08-25T03:36:44.368Z,21.25
2023-08-25T03:39:11.274Z,18.75
2023-08-25T03:41:37.736Z,22.25
2023-08-25T03:44:04.383Z,19.75
2023-08-25T03:46:30.928Z,22.00
2023-08-25T03:48:58.269Z,20.50
2023-08-25T03:51:24.796Z,21.75
2023-08-25T03:53:51.442Z,18.50
2023-08-25T03:56:17.888Z,22.25
2023-08-25T03:58:44.341Z,23.00
2023-08-25T04:01:10.953Z,23.33
2023-08-25T04:03:37.438Z,23.00
2023-08-25T04:06:04.211Z,22.00
2023-08-25T04:08:31.098Z,23.25
2023-08-25T04:10:57.556Z,24.67
2023-08-25T04:13:24.094Z,22.25
2023-08-25T04:15:59.318Z,20.25
2023-08-25T04:18:26.420Z,16.50
2023-08-25T04:20:52.916Z,20.75
2023-08-25T04:23:19.425Z,20.25
2023-08-25T04:25:45.924Z,20.75
2023-08-25T04:28:12.361Z,22.25
2023-08-25T04:30:38.977Z,22.75
2023-08-25T04:33:05.795Z,22.50
2023-08-25T04:35:33.201Z,24.00
2023-08-25T04:37:59.635Z,22.00
2023-08-25T04:40:26.122Z,20.75
2023-08-25T04:42:52.701Z,22.00
2023-08-25T04:45:19.141Z,22.25
2023-08-25T04:47:45.556Z,23.00
2023-08-25T04:50:11.973Z,19.75
2023-08-25T04:52:38.411Z,23.00
2023-08-25T04:55:05.803Z,20.75
2023-08-25T04:57:32.536Z,18.00
2023-08-25T04:59:59.497Z,22.00
2023-08-25T05:02:26.109Z,18.75
2023-08-25T05:04:52.683Z,18.50
2023-08-25T05:07:19.171Z,22.00
2023-08-25T05:09:45.707Z,22.50
2023-08-25T05:12:13.075Z,20.50
2023-08-25T05:14:39.712Z,21.50
2023-08-25T05:17:06.372Z,21.00
2023-08-25T05:19:32.796Z,22.00
2023-08-25T05:22:00.435Z,23.00
2023-08-25T05:24:27.528Z,29.00
2023-08-25T05:26:54.341Z,24.00
2023-08-25T05:29:21.286Z,24.00
2023-08-25T05:31:47.808Z,23.00
2023-08-25T05:34:15.029Z,24.00
2023-08-25T05:36:41.495Z,2.50
2023-08-25T05:39:08.920Z,21.00
2023-08-25T05:41:35.841Z,22.00
2023-08-25T05:44:02.949Z,21.00
2023-08-25T05:46:30.414Z,22.50
2023-08-25T05:48:57.289Z,22.75
2023-08-25T05:51:24.497Z,19.25
2023-08-25T05:53:51.076Z,21.75
2023-08-25T05:56:17.572Z,18.75
2023-08-25T05:58:44.216Z,19.25
2023-08-25T06:01:12.198Z,21.50
2023-08-25T06:03:39.167Z,19.75
2023-08-25T06:06:05.745Z,17.75
2023-08-25T06:08:32.291Z,18.00
2023-08-25T06:11:00.318Z,9.50
2023-08-25T06:13:27.853Z,19.00
2023-08-25T06:15:54.351Z,18.25
2023-08-25T06:18:20.858Z,19.00
2023-08-25T06:20:47.530Z,18.50
2023-08-25T06:23:15.805Z,25.67
2023-08-25T06:25:42.522Z,23.50
2023-08-25T06:28:08.931Z,26.67
2023-08-25T06:30:35.434Z,22.75
2023-08-25T06:33:01.947Z,23.75
2023-08-25T06:35:28.496Z,23.25
2023-08-25T06:37:55.298Z,21.75
2023-08-25T06:40:21.960Z,18.50
2023-08-25T06:42:48.412Z,20.50
2023-08-25T06:45:15.528Z,18.75
2023-08-25T06:47:42.035Z,19.75
2023-08-25T06:50:08.621Z,18.75
2023-08-25T06:52:37.521Z,19.25
2023-08-25T06:55:04.262Z,18.00
2023-08-25T06:57:31.874Z,18.00
2023-08-25T06:59:58.603Z,17.50
2023-08-25T07:02:25.104Z,16.00
2023-08-25T07:04:51.580Z,14.25
2023-08-25T07:07:25.222Z,18.00
2023-08-25T07:09:51.707Z,17.25
2023-08-25T07:12:18.522Z,16.75
2023-08-25T07:14:45.115Z,17.50
2023-08-25T07:17:12.401Z,17.00
2023-08-25T07:19:38.882Z,13.25
2023-08-25T07:22:05.416Z,17.25
2023-08-25T07:24:31.916Z,17.00
2023-08-25T07:26:58.448Z,16.00
2023-08-25T07:29:24.883Z,16.75
2023-08-25T07:31:52.711Z,18.00
2023-08-25T07:34:19.132Z,18.00
2023-08-25T07:36:45.880Z,17.00
2023-08-25T07:39:12.682Z,18.50
2023-08-25T07:41:39.162Z,16.00
2023-08-25T07:44:05.615Z,18.00
2023-08-25T07:46:36.993Z,15.25
2023-08-25T07:49:03.456Z,17.75
2023-08-25T07:51:39.586Z,17.25
2023-08-25T07:54:07.334Z,17.00
2023-08-25T07:56:33.854Z,16.25
2023-08-25T07:59:00.362Z,18.25
2023-08-25T08:01:26.821Z,18.25
2023-08-25T08:03:53.366Z,17.50
2023-08-25T08:06:19.915Z,15.00
2023-08-25T08:08:46.499Z,20.00
2023-08-25T08:11:12.965Z,18.00
2023-08-25T08:13:40.476Z,19.75
2023-08-25T08:16:06.995Z,19.00
2023-08-25T08:18:33.426Z,17.75
2023-08-25T08:20:59.822Z,20.00
2023-08-25T08:23:26.314Z,21.00
2023-08-25T08:25:52.797Z,19.00
2023-08-25T08:28:19.259Z,17.00
2023-08-25T08:30:48.377Z,16.50
2023-08-25T08:33:16.282Z,19.75
2023-08-25T08:35:42.986Z,18.75
2023-08-25T08:38:09.961Z,17.50
2023-08-25T08:40:36.640Z,14.00
2023-08-25T08:43:03.901Z,17.00
2023-08-25T08:45:34.843Z,19.50
2023-08-25T08:48:02.131Z,14.00
2023-08-25T08:50:29.344Z,16.33
2023-08-25T08:52:57.077Z,15.00
2023-08-25T08:55:23.605Z,15.75
2023-08-25T08:57:50.754Z,14.75
2023-08-25T09:00:19.889Z,17.50
2023-08-25T09:02:54.374Z,16.00
2023-08-25T09:05:28.906Z,15.00
2023-08-25T09:07:57.219Z,14.75
2023-08-25T09:10:27.877Z,14.50
2023-08-25T09:12:54.380Z,16.00
2023-08-25T09:15:30.930Z,15.00
2023-08-25T09:18:06.424Z,16.25
2023-08-25T09:20:37.632Z,15.75
2023-08-25T09:23:04.219Z,14.75
2023-08-25T09:25:30.704Z,13.75
2023-08-25T09:28:00.881Z,12.25
2023-08-25T09:30:37.615Z,14.00
2023-08-25T09:33:05.017Z,13.75
2023-08-25T09:35:32.400Z,15.75
2023-08-25T09:37:59.001Z,15.50
2023-08-25T09:40:26.351Z,13.00
2023-08-25T09:43:02.731Z,13.75
2023-08-25T09:45:30.252Z,12.25
2023-08-25T09:48:15.014Z,14.25
2023-08-25T09:50:42.583Z,12.50
2023-08-25T09:53:10.640Z,14.00
2023-08-25T09:55:40.327Z,12.25
2023-08-25T09:58:07.705Z,13.50
2023-08-25T10:00:35.052Z,11.75
2023-08-25T10:03:02.963Z,13.00
2023-08-25T10:05:31.848Z,12.25
2023-08-25T10:07:58.560Z,13.00
2023-08-25T10:10:25.985Z,13.00
2023-08-25T10:12:54.165Z,13.25
2023-08-25T10:15:21.442Z,13.00
2023-08-25T10:17:48.317Z,14.50
2023-08-25T10:20:15.940Z,11.00
2023-08-25T10:22:47.377Z,15.00
2023-08-25T10:25:14.395Z,13.00
2023-08-25T10:27:41.767Z,13.75
2023-08-25T10:30:08.732Z,13.50
2023-08-25T10:32:51.802Z,12.75
2023-08-25T10:35:37.166Z,9.75
2023-08-25T10:38:03.725Z,12.75
2023-08-25T10:40:50.420Z,13.50
2023-08-25T10:43:24.062Z,12.50
2023-08-25T10:45:53.920Z,12.50
2023-08-25T10:48:35.714Z,13.00
2023-08-25T10:51:13.037Z,11.75
2023-08-25T10:53:43.705Z,10.75
2023-08-25T10:56:19.713Z,11.75
2023-08-25T10:58:57.550Z,13.75
2023-08-25T11:01:29.112Z,8.75
2023-08-25T11:04:08.346Z,12.25
2023-08-25T11:06:41.899Z,12.75
2023-08-25T11:09:10.225Z,11.25
2023-08-25T11:11:37.612Z,11.00
2023-08-25T11:14:05.369Z,11.00
2023-08-25T11:16:31.993Z,10.50
2023-08-25T11:18:58.540Z,12.75
2023-08-25T11:21:25.617Z,11.50
2023-08-25T11:23:52.129Z,14.25
2023-08-25T11:26:19.024Z,13.50
2023-08-25T11:28:50.287Z,12.75
2023-08-25T11:31:17.262Z,14.00
2023-08-25T11:33:44.942Z,11.75
2023-08-25T11:36:16.977Z,10.00
2023-08-25T11:38:46.889Z,11.75
2023-08-25T11:41:15.482Z,11.00
2023-08-25T11:43:41.987Z,13.00
2023-08-25T11:46:08.690Z,12.50
2023-08-25T11:48:35.486Z,12.00
2023-08-25T11:51:04.027Z,12.50
2023-08-25T11:53:31.362Z,12.75
2023-08-25T11:56:01.273Z,13.00
2023-08-25T11:58:31.917Z,12.00
2023-08-25T12:01:02.047Z,13.75
2023-08-25T12:03:28.721Z,11.00
2023-08-25T12:05:55.439Z,10.25
2023-08-25T12:08:23.276Z,11.50
2023-08-25T12:10:51.136Z,13.50
2023-08-25T12:13:24.051Z,13.00
2023-08-25T12:15:53.060Z,10.75
2023-08-25T12:18:20.147Z,11.75
2023-08-25T12:20:46.862Z,12.25
2023-08-25T12:23:14.433Z,13.00
2023-08-25T12:25:43.810Z,11.25
2023-08-25T12:28:12.103Z,11.00
2023-08-25T12:30:38.901Z,11.00
2023-08-25T12:33:07.132Z,13.00
2023-08-25T12:35:34.161Z,12.25
2023-08-25T12:38:00.747Z,14.25
2023-08-25T12:40:27.202Z,12.00
2023-08-25T12:42:55.280Z,11.25
2023-08-25T12:45:22.455Z,9.25
2023-08-25T12:47:48.979Z,11.75
2023-08-25T12:50:15.581Z,12.00
2023-08-25T12:52:42.152Z,10.25
2023-08-25T12:55:20.671Z,9.25
2023-08-25T12:57:51.002Z,10.00
2023-08-25T13:00:18.042Z,10.25
2023-08-25T13:02:44.634Z,9.00
2023-08-25T13:05:11.280Z,10.50
2023-08-25T13:07:39.246Z,8.00
2023-08-25T13:10:07.083Z,9.00
2023-08-25T13:12:34.143Z,9.00
2023-08-25T13:15:02.483Z,9.00
2023-08-25T13:17:28.979Z,7.75
2023-08-25T13:19:56.239Z,7.25
2023-08-25T13:22:23.078Z,7.25
2023-08-25T13:24:49.539Z,7.00
2023-08-25T13:27:16.931Z,8.00
2023-08-25T13:29:43.422Z,7.00
2023-08-25T13:32:10.011Z,8.75
2023-08-25T13:34:36.531Z,8.00
2023-08-25T13:37:04.901Z,7.75
2023-08-25T13:39:31.358Z,8.75
2023-08-25T13:41:57.765Z,7.75
2023-08-25T13:44:24.265Z,7.00
2023-08-25T13:46:50.805Z,9.00
2023-08-25T13:49:17.214Z,10.50
2023-08-25T13:51:43.628Z,9.00
2023-08-25T13:54:10.452Z,7.50
2023-08-25T13:56:37.530Z,7.25
2023-08-25T13:59:04.496Z,8.00
2023-08-25T14:01:30.952Z,7.75
2023-08-25T14:03:57.516Z,9.25
2023-08-25T14:06:24.089Z,9.25
2023-08-25T14:08:50.896Z,10.50
2023-08-25T14:11:17.611Z,9.00
2023-08-25T14:13:44.133Z,7.50
2023-08-25T14:16:10.696Z,8.25
2023-08-25T14:18:37.433Z,8.00
2023-08-25T14:21:04.736Z,9.00
2023-08-25T14:23:31.393Z,9.75
2023-08-25T14:25:57.861Z,9.00
2023-08-25T14:28:24.598Z,11.00
2023-08-25T14:30:51.073Z,8.50
2023-08-25T14:33:17.740Z,10.75
2023-08-25T14:35:44.178Z,9.75
2023-08-25T14:38:10.656Z,9.00
2023-08-25T14:40:37.048Z,7.75
2023-08-25T14:43:03.602Z,9.25
2023-08-25T14:45:30.598Z,8.00
2023-08-25T14:47:58.881Z,9.00
2023-08-25T14:50:27.494Z,9.00
2023-08-25T14:52:53.965Z,9.00
2023-08-25T14:55:20.386Z,10.25
2023-08-25T14:57:47.237Z,10.00
2023-08-25T15:00:13.901Z,9.00
2023-08-25T15:02:43.370Z,7.75
2023-08-25T15:05:10.175Z,8.00
2023-08-25T15:07:36.984Z,7.00
2023-08-25T15:10:06.485Z,5.00
2023-08-25T15:12:33.003Z,6.25
2023-08-25T15:14:59.534Z,6.75
2023-08-25T15:17:27.030Z,4.25
2023-08-25T15:19:53.632Z,7.00
2023-08-25T15:22:23.935Z,6.50
2023-08-25T15:24:50.389Z,0.00
2023-08-25T15:27:16.908Z,7.00
2023-08-25T15:29:51.065Z,6.00
2023-08-25T15:32:18.194Z,13.25
2023-08-25T15:34:44.659Z,16.75
2023-08-25T15:37:12.243Z,19.50
2023-08-25T15:39:38.805Z,5.50
2023-08-25T15:42:05.456Z,5.00
2023-08-25T15:44:32.072Z,7.25
2023-08-25T15:46:58.639Z,6.50
2023-08-25T15:49:26.020Z,6.75
2023-08-25T15:51:52.566Z,7.00
2023-08-25T15:54:19.061Z,5.00
2023-08-25T15:56:45.500Z,5.25
2023-08-25T15:59:11.929Z,6.75
2023-08-25T16:01:38.558Z,5.00
2023-08-25T16:04:05.059Z,7.00
2023-08-25T16:06:31.699Z,6.25
2023-08-25T16:08:58.737Z,6.75
2023-08-25T16:11:25.291Z,6.25
2023-08-25T16:13:51.863Z,6.50
2023-08-25T16:16:18.298Z,6.75
2023-08-25T16:18:46.120Z,7.00
2023-08-25T16:21:13.181Z,6.00
2023-08-25T16:23:59.020Z,6.00
2023-08-25T16:26:27.457Z,6.00
2023-08-25T16:28:53.927Z,4.00
2023-08-25T16:31:20.411Z,5.25
2023-08-25T16:33:46.886Z,5.00
2023-08-25T16:36:14.270Z,5.00
2023-08-25T16:38:41.203Z,5.00
2023-08-25T16:41:10.660Z,5.75
2023-08-25T16:43:37.199Z,4.50
2023-08-25T16:46:06.385Z,6.25
2023-08-25T16:48:32.903Z,6.00
2023-08-25T16:50:59.377Z,6.75
2023-08-25T16:53:26.214Z,7.25
2023-08-25T16:55:53.255Z,6.75
2023-08-25T16:58:19.844Z,7.00
2023-08-25T17:00:48.430Z,6.00
2023-08-25T17:03:15.000Z,6.50
2023-08-25T17:05:41.533Z,8.25
2023-08-25T17:08:09.456Z,7.50
2023-08-25T17:10:36.696Z,9.50
2023-08-25T17:13:03.638Z,8.50
2023-08-25T17:15:35.461Z,8.50
2023-08-25T17:18:02.119Z,8.25
2023-08-25T17:20:28.874Z,8.25
2023-08-25T17:22:55.676Z,8.00
2023-08-25T17:25:22.450Z,7.50
2023-08-25T17:27:48.906Z,8.75
2023-08-25T17:30:15.582Z,10.00
2023-08-25T17:32:42.151Z,9.33
2023-08-25T17:35:08.823Z,9.25
2023-08-25T17:37:35.403Z,8.50
2023-08-25T17:40:02.272Z,11.00
2023-08-25T17:42:29.059Z,12.25
2023-08-25T17:44:55.856Z,11.75
2023-08-25T17:47:22.553Z,14.25
2023-08-25T17:49:49.029Z,12.25
2023-08-25T17:52:15.456Z,13.75
2023-08-25T17:54:41.905Z,15.25
2023-08-25T17:57:08.435Z,14.50
2023-08-25T17:59:35.530Z,16.50
2023-08-25T18:02:02.928Z,11.50
2023-08-25T18:04:29.482Z,16.75
2023-08-25T18:06:56.012Z,15.25
2023-08-25T18:09:23.053Z,15.75
2023-08-25T18:11:49.672Z,13.75
2023-08-25T18:14:16.719Z,16.00
2023-08-25T18:16:43.328Z,17.75
2023-08-25T18:19:10.166Z,18.25
2023-08-25T18:21:36.655Z,16.50
2023-08-25T18:24:03.400Z,14.75
2023-08-25T18:26:30.122Z,19.25
2023-08-25T18:28:56.774Z,20.00
2023-08-25T18:31:23.919Z,21.50
2023-08-25T18:33:50.606Z,21.00
2023-08-25T18:36:17.395Z,21.25
2023-08-25T18:38:44.029Z,21.00
2023-08-25T18:41:10.627Z,20.00
2023-08-25T18:43:37.128Z,22.50
2023-08-25T18:46:15.816Z,21.25
2023-08-25T18:48:42.338Z,21.75
2023-08-25T18:51:11.386Z,24.25
2023-08-25T18:53:39.109Z,21.25
2023-08-25T18:56:05.636Z,22.25
2023-08-25T18:58:32.229Z,21.25
2023-08-25T19:00:58.768Z,23.00
2023-08-25T19:03:25.364Z,22.25
2023-08-25T19:05:51.888Z,18.75
2023-08-25T19:08:18.512Z,20.00
2023-08-25T19:10:45.364Z,21.50
2023-08-25T19:13:16.005Z,20.00
2023-08-25T19:15:43.311Z,21.25
2023-08-25T19:18:10.349Z,20.25
2023-08-25T19:20:37.073Z,21.00
2023-08-25T19:23:03.676Z,21.50
2023-08-25T19:25:31.722Z,20.75
2023-08-25T19:27:59.909Z,23.75
2023-08-25T19:30:26.405Z,21.50
2023-08-25T19:32:53.151Z,20.75
2023-08-25T19:35:20.890Z,20.50
2023-08-25T19:37:47.613Z,20.75
2023-08-25T19:40:16.247Z,20.75
2023-08-25T19:42:47.433Z,22.00
2023-08-25T19:45:15.258Z,20.00
2023-08-25T19:47:42.083Z,22.75
2023-08-25T19:50:09.088Z,21.50
2023-08-25T19:52:35.736Z,22.25
2023-08-25T19:55:02.583Z,22.25
2023-08-25T19:57:29.161Z,22.00
2023-08-25T19:59:56.099Z,21.75
2023-08-25T20:02:22.866Z,23.00
2023-08-25T20:04:51.020Z,22.00
2023-08-25T20:07:19.002Z,21.75
2023-08-25T20:09:45.626Z,23.25
2023-08-25T20:12:12.177Z,21.25
2023-08-25T20:14:38.885Z,23.25
2023-08-25T20:17:06.205Z,22.00
2023-08-25T20:19:32.736Z,23.00
2023-08-25T20:21:59.188Z,23.25
2023-08-25T20:24:25.620Z,23.00
2023-08-25T20:26:52.039Z,16.25
2023-08-25T20:29:18.537Z,22.25
2023-08-25T20:31:45.056Z,23.00
2023-08-25T20:34:11.537Z,23.00
2023-08-25T20:36:38.072Z,23.33
2023-08-25T20:39:04.634Z,24.00
2023-08-25T20:41:31.131Z,24.25
2023-08-25T20:43:57.984Z,24.75
2023-08-25T20:46:24.530Z,23.50
2023-08-25T20:48:51.980Z,23.00
2023-08-25T20:51:22.573Z,24.33
2023-08-25T20:53:49.503Z,24.00
2023-08-25T20:56:16.143Z,23.75
2023-08-25T20:58:43.999Z,24.00
2023-08-25T21:01:10.457Z,21.75
2023-08-25T21:03:37.370Z,24.00
2023-08-25T21:06:03.995Z,22.50
2023-08-25T21:08:31.212Z,24.00
2023-08-25T21:10:57.959Z,22.00
2023-08-25T21:13:24.380Z,22.00
2023-08-25T21:15:51.852Z,23.00
2023-08-25T21:18:18.786Z,21.50
2023-08-25T21:20:46.991Z,22.25
2023-08-25T21:23:13.649Z,22.25
2023-08-25T21:25:40.397Z,23.25
2023-08-25T21:28:07.003Z,21.75
2023-08-25T21:30:33.453Z,22.75
2023-08-25T21:33:01.517Z,22.50
2023-08-25T21:35:30.629Z,19.25
2023-08-25T21:37:57.397Z,19.25
2023-08-25T21:40:23.963Z,15.25
2023-08-25T21:42:50.376Z,22.25
2023-08-25T21:45:18.355Z,21.00
2023-08-25T21:47:46.820Z,20.50
2023-08-25T21:50:13.413Z,20.75
2023-08-25T21:52:41.280Z,21.00
2023-08-25T21:55:07.882Z,21.75
2023-08-25T21:57:34.357Z,18.25
2023-08-25T22:00:00.769Z,19.25
2023-08-25T22:02:27.230Z,14.00
2023-08-25T22:04:53.641Z,17.25
2023-08-25T22:07:20.084Z,15.50
2023-08-25T22:09:46.625Z,15.00
2023-08-25T22:12:13.083Z,15.50
2023-08-25T22:14:39.619Z,20.00
2023-08-25T22:17:06.023Z,15.50
2023-08-25T22:19:32.536Z,16.75
2023-08-25T22:21:58.923Z,16.50
2023-08-25T22:24:25.415Z,16.25
2023-08-25T22:26:51.863Z,10.25
2023-08-25T22:29:18.395Z,15.50
2023-08-25T22:31:45.598Z,15.25
2023-08-25T22:34:15.809Z,14.50
2023-08-25T22:36:42.512Z,15.00
2023-08-25T22:39:09.923Z,13.25
2023-08-25T22:41:36.445Z,14.00
2023-08-25T22:44:04.434Z,16.50
2023-08-25T22:46:31.079Z,14.50
2023-08-25T22:48:57.740Z,11.25
2023-08-25T22:51:24.410Z,15.75
2023-08-25T22:53:50.976Z,15.00
2023-08-25T22:56:17.823Z,15.75
2023-08-25T22:58:44.258Z,17.25
2023-08-25T23:01:20.430Z,14.75
2023-08-25T23:03:47.317Z,14.75
2023-08-25T23:06:14.711Z,14.50
2023-08-25T23:08:48.723Z,16.25
2023-08-25T23:11:15.266Z,15.25
2023-08-25T23:13:41.885Z,17.00
2023-08-25T23:16:10.743Z,16.00
2023-08-25T23:18:37.421Z,15.00
2023-08-25T23:21:03.868Z,15.25
2023-08-25T23:23:30.320Z,13.25
2023-08-25T23:25:56.953Z,17.25
2023-08-25T23:28:24.064Z,15.75
2023-08-25T23:30:50.532Z,16.25
2023-08-25T23:33:17.025Z,17.00
2023-08-25T23:35:45.278Z,15.25
2023-08-25T23:38:11.857Z,16.50
2023-08-25T23:40:38.236Z,17.75
2023-08-25T23:43:04.767Z,15.00
2023-08-25T23:45:31.482Z,16.75
2023-08-25T23:47:58.313Z,16.00
2023-08-25T23:50:25.091Z,16.00
2023-08-25T23:52:51.502Z,14.00
2023-08-25T23:55:17.943Z,18.50
2023-08-25T23:57:45.216Z,16.25
